Latest Weather Observations for Edenhope

IDV60801

Issued at 7:12 pm EDT Monday 25 October 2021 (issued every 10 minutes, with the page automatically refreshed every 10 minutes)

About weather observations | Map of weather stations | Latest weather observations for VIC | Other Formats
Station Details ID: 079099 Name: EDENHOPE AIRPORT Lat: -37.02 Lon: 141.27 Height: 155.0 m
Data from the previous 72 hours. | See also: Recent months at Edenhope
Date/Time
EDT
Temp
°C
App
Temp
°C
Dew
Point
°C
Rel
Hum
%
Delta-T
°C
Wind Press
QNH
hPa
Press
MSL
hPa
Rain since
9am
mm
Dir  Spd
km/h
Gust
km/h
Spd
kts
Gust
kts
25/07:00pm 14.2 9.8 5.0 54 4.3 SE 17 24 9 13 - - 0.0
25/06:30pm 15.4 11.9 5.6 52 4.7 SE 13 20 7 11 - - 0.0
25/06:00pm 15.7 12.5 5.0 49 5.1 SE 11 19 6 10 - - 0.0
25/05:30pm 15.7 12.0 4.7 48 5.2 SE 13 20 7 11 - - 0.0
25/05:00pm 16.1 12.9 5.1 48 5.3 SE 11 19 6 10 - - 0.0
25/04:30pm 15.7 12.2 5.3 50 5.0 SE 13 28 7 15 - - 0.0
25/04:00pm 15.5 12.0 5.4 51 4.8 SSE 13 20 7 11 - - 0.0
25/03:30pm 15.3 12.5 5.0 50 4.9 ESE 9 20 5 11 - - 0.0
25/03:00pm 15.0 11.0 4.7 50 4.8 SE 15 28 8 15 - - 0.0
25/02:30pm 15.8 12.2 4.8 48 5.2 SSE 13 24 7 13 - - 0.0
25/02:00pm 15.3 12.1 5.0 50 4.9 S 11 20 6 11 - - 0.0
25/01:30pm 14.8 11.4 4.2 49 4.9 SSE 11 24 6 13 - - 0.0
25/01:00pm 14.8 11.9 4.8 51 4.7 SE 9 19 5 10 - - 0.0
25/12:30pm 13.9 10.1 3.9 51 4.6 SE 13 20 7 11 - - 0.0
25/12:00pm 12.8 9.3 3.7 54 4.1 SSE 11 20 6 11 - - 0.0
25/11:30am 12.3 8.4 3.5 55 3.9 S 13 19 7 10 - - 0.0
25/11:00am 12.9 9.5 4.1 55 4.0 SE 11 19 6 10 - - 0.0
25/10:30am 11.8 7.6 3.8 58 3.6 SSE 15 24 8 13 - - 0.0
25/10:00am 11.4 7.2 3.7 59 3.4 SE 15 20 8 11 - - 0.0
25/09:30am 10.9 6.4 4.1 63 3.1 SSE 17 24 9 13 - - 0.0
25/09:00am 10.4 7.0 4.1 65 2.8 SSE 11 15 6 8 - - 0.0
25/08:30am 9.6 7.0 4.4 70 2.3 SSE 7 13 4 7 - - 0.0
25/08:00am 8.4 6.1 4.6 77 1.7 S 6 7 3 4 - - 0.0
25/07:30am 7.0 5.0 4.5 84 1.1 S 4 6 2 3 - - 0.0
25/07:00am 6.1 4.5 4.6 90 0.7 S 2 4 1 2 - - 0.0
25/06:30am 5.4 3.8 4.4 93 0.4 SSW 2 4 1 2 - - 0.0
25/06:00am 4.6 2.5 3.7 94 0.4 SSW 4 6 2 3 - - 0.0
25/05:30am 3.4 1.4 2.4 93 0.4 SW 2 4 1 2 - - 0.0
25/05:00am 3.4 1.8 2.2 92 0.5 CALM 0 0 0 0 - - 0.0
25/04:30am 3.0 1.3 1.7 91 0.5 CALM 0 0 0 0 - - 0.0
25/04:00am 4.7 3.3 3.4 91 0.5 CALM 0 2 0 1 - - 0.0
25/03:30am 4.4 2.5 2.8 89 0.7 SSW 2 4 1 2 - - 0.0
25/03:00am 5.5 3.4 3.8 89 0.7 S 4 6 2 3 - - 0.0
25/02:30am 5.5 3.0 3.8 89 0.7 SSE 6 7 3 4 - - 0.0
25/02:00am 6.2 3.9 4.7 90 0.7 S 6 7 3 4 - - 0.0
25/01:30am 5.9 3.4 3.9 87 0.9 S 6 7 3 4 - - 0.0
25/01:00am 6.7 4.1 4.4 85 1.0 S 7 9 4 5 - - 0.0
25/12:30am 7.1 4.6 4.9 86 1.0 S 7 9 4 5 - - 0.0
25/12:00am 6.1 3.5 3.4 83 1.1 SSW 6 9 3 5 - - 0.0
 
Date/Time
EDT
Temp
°C
App
Temp
°C
Dew
Point
°C
Rel
Hum
%
Delta-T
°C
Wind Press
QNH
hPa
Press
MSL
hPa
Rain since
9am
mm
Dir  Spd
km/h
Gust
km/h
Spd
kts
Gust
kts
24/11:30pm 6.7 4.2 3.9 82 1.2 S 6 6 3 3 - - 0.0
24/11:00pm 7.1 4.6 3.9 80 1.4 S 6 7 3 4 - - 0.0
24/10:30pm 7.7 5.3 4.1 78 1.6 SSE 6 7 3 4 - - 0.0
24/10:00pm 8.8 6.2 4.2 73 2.0 S 7 13 4 7 - - 0.0
24/09:30pm 10.1 6.8 4.5 68 2.5 SSE 11 15 6 8 - - 0.0
24/09:00pm 10.8 7.2 4.9 67 2.7 SSE 13 20 7 11 - - 0.0
24/08:30pm 11.1 7.5 4.8 65 2.9 SSE 13 20 7 11 - - 0.0
24/08:00pm 11.6 8.5 5.5 66 2.8 SSE 11 17 6 9 - - 0.0
24/07:30pm 12.2 8.7 5.4 63 3.2 SSE 13 22 7 12 - - 0.0
24/07:00pm 12.6 8.6 5.1 60 3.5 S 15 22 8 12 - - 0.0
24/06:30pm 12.8 7.9 4.0 55 4.0 S 19 30 10 16 - - 0.0
24/06:00pm 13.4 9.0 4.8 56 4.0 SSE 17 30 9 16 - - 0.0
24/05:30pm 14.1 10.1 4.9 54 4.3 S 15 26 8 14 - - 0.0
24/05:00pm 14.4 10.7 4.7 52 4.5 S 13 20 7 11 - - 0.0
24/04:30pm 14.1 10.3 5.7 57 4.0 S 15 26 8 14 - - 0.0
24/04:00pm 14.3 10.0 5.1 54 4.3 S 17 28 9 15 - - 0.0
24/03:30pm 14.6 10.3 5.4 54 4.4 S 17 26 9 14 - - 0.0
24/03:00pm 14.6 10.6 4.9 52 4.6 S 15 22 8 12 - - 0.0
24/02:30pm 14.6 10.2 4.9 52 4.6 S 17 26 9 14 - - 0.0
24/02:00pm 14.2 10.3 5.3 55 4.2 SSE 15 20 8 11 - - 0.0
24/01:30pm 13.9 9.5 4.8 54 4.3 S 17 28 9 15 - - 0.0
24/01:00pm 13.2 8.4 5.6 60 3.6 S 20 30 11 16 - - 0.0
24/12:30pm 13.8 9.1 3.3 49 4.8 S 17 28 9 15 - - 0.0
24/12:00pm 13.5 8.3 2.4 47 4.9 SSE 19 28 10 15 - - 0.0
24/11:30am 13.9 8.9 3.4 49 4.8 S 19 26 10 14 - - 0.0
24/11:00am 13.5 9.0 4.1 53 4.3 S 17 24 9 13 - - 0.0
24/10:30am 12.1 7.2 4.1 58 3.6 S 19 32 10 17 - - 0.0
24/10:00am 12.0 7.2 4.7 61 3.4 SSE 19 33 10 18 - - 0.0
24/09:30am 12.1 7.2 7.0 71 2.5 SSE 22 33 12 18 - - 0.0
24/09:00am 10.9 8.1 10.1 95 0.4 S 15 24 8 13 - - 0.2
24/08:30am 9.5 7.7 9.5 100 0.0 S 9 15 5 8 - - 0.2
24/08:00am 7.8 6.5 7.8 100 0.0 SW 4 6 2 3 - - 0.2
24/07:30am 6.5 5.3 6.5 100 0.0 SSW 2 4 1 2 - - 0.2
24/07:00am 5.2 3.7 5.1 99 0.0 SW 2 2 1 1 - - 0.2
24/06:30am 6.1 5.2 6.0 99 0.0 CALM 0 0 0 0 - - 0.2
24/06:00am 5.8 4.4 5.7 99 0.0 SSW 2 6 1 3 - - 0.2
24/05:30am 5.2 3.0 5.1 99 0.0 SSW 6 7 3 4 - - 0.2
24/05:00am 3.7 1.9 3.3 97 0.2 WSW 2 4 1 2 - - 0.2
24/04:30am 4.2 2.5 3.8 97 0.2 WSW 2 4 1 2 - - 0.2
24/04:00am 5.0 3.4 4.6 97 0.2 WSW 2 2 1 1 - - 0.2
24/03:30am 4.8 2.8 4.2 96 0.3 SW 4 6 2 3 - - 0.2
24/03:00am 6.0 4.2 5.6 97 0.2 SSW 4 6 2 3 - - 0.2
24/02:30am 5.5 3.5 4.6 94 0.4 SSW 4 6 2 3 - - 0.2
24/02:00am 6.4 4.6 5.5 94 0.4 SSW 4 7 2 4 - - 0.2
24/01:30am 6.1 5.0 5.1 93 0.4 CALM 0 0 0 0 - - 0.2
24/01:00am 7.4 5.2 6.3 93 0.5 S 7 9 4 5 - - 0.2
24/12:30am 7.8 5.9 6.6 92 0.6 S 6 11 3 6 - - 0.2
24/12:00am 8.1 6.0 6.7 91 0.7 S 7 11 4 6 - - 0.2
 
Date/Time
EDT
Temp
°C
App
Temp
°C
Dew
Point
°C
Rel
Hum
%
Delta-T
°C
Wind Press
QNH
hPa
Press
MSL
hPa
Rain since
9am
mm
Dir  Spd
km/h
Gust
km/h
Spd
kts
Gust
kts
23/11:30pm 8.1 5.9 6.2 88 0.9 S 7 13 4 7 - - 0.2
23/11:00pm 8.6 6.6 6.2 85 1.1 S 6 9 3 5 - - 0.2
23/10:30pm 9.1 6.6 6.5 84 1.2 S 9 13 5 7 - - 0.2
23/10:00pm 9.5 7.0 6.6 82 1.4 S 9 15 5 8 - - 0.2
23/09:30pm 10.1 6.8 6.6 79 1.7 S 13 19 7 10 - - 0.2
23/09:00pm 10.7 7.4 6.3 74 2.1 S 13 17 7 9 - - 0.2
23/08:30pm 11.5 8.6 6.4 71 2.4 S 11 17 6 9 - - 0.2
23/08:00pm 12.8 9.5 6.2 64 3.2 S 13 22 7 12 - - 0.2
23/07:30pm 13.6 10.1 7.4 66 3.1 S 15 22 8 12 - - 0.2
23/07:00pm 14.0 9.9 6.4 60 3.7 SSW 17 33 9 18 - - 0.2
23/06:30pm 15.8 12.2 6.8 55 4.5 SW 15 20 8 11 - - 0.2
23/06:00pm 14.9 10.9 6.5 57 4.1 SW 17 24 9 13 - - 0.2
23/05:30pm 16.5 12.0 6.3 51 5.0 SW 19 26 10 14 - - 0.2
23/05:00pm 15.8 11.7 6.0 52 4.8 SW 17 28 9 15 - - 0.2
23/04:30pm 17.0 11.8 5.6 47 5.6 WSW 22 33 12 18 - - 0.2
23/04:00pm 17.5 13.0 7.0 50 5.3 WSW 20 32 11 17 - - 0.2
23/03:30pm 16.5 11.8 5.2 47 5.4 SW 19 32 10 17 - - 0.2
23/03:00pm 15.8 11.7 6.0 52 4.8 WSW 17 24 9 13 - - 0.2
23/02:30pm 14.5 9.0 6.1 57 4.1 WSW 24 37 13 20 - - 0.2
23/02:00pm 13.0 7.4 7.0 67 2.9 WSW 26 41 14 22 - - 0.2
23/01:30pm 16.0 11.1 5.3 49 5.1 WSW 20 28 11 15 - - 0.2
23/01:00pm 15.7 11.3 7.2 57 4.2 WSW 20 28 11 15 - - 0.2
23/12:30pm 14.6 10.4 7.6 63 3.5 WSW 19 26 10 14 - - 0.2
23/12:00pm 14.9 11.5 7.7 62 3.6 W 15 24 8 13 - - 0.2
23/11:30am 14.2 10.1 7.7 65 3.2 WSW 19 26 10 14 - - 0.2
23/11:00am 13.4 8.9 7.0 65 3.1 SW 20 30 11 16 - - 0.2
23/10:30am 12.1 8.5 8.4 78 1.8 SW 17 24 9 13 - - 0.2
23/10:00am 9.2 4.4 7.3 88 0.9 SW 22 33 12 18 - - 0.2
23/09:53am 9.0 2.9 6.8 86 1.0 SW 28 46 15 25 - - 0.2
23/09:30am 12.0 9.2 9.9 87 1.1 WSW 15 20 8 11 - - 0.0
23/09:00am 10.7 9.1 10.1 96 0.3 SW 9 15 5 8 - - 0.4
23/08:30am 11.1 8.8 10.6 97 0.3 WSW 13 19 7 10 - - 0.4
23/08:00am 11.0 9.6 10.8 99 0.1 SW 9 13 5 7 - - 0.4
23/07:30am 10.6 8.7 10.4 99 0.1 SW 11 19 6 10 - - 0.4
23/07:00am 10.6 9.1 10.4 99 0.1 SW 9 15 5 8 - - 0.4
23/06:30am 10.7 9.2 10.5 99 0.1 SW 9 11 5 6 - - 0.4
23/06:00am 10.8 9.7 10.5 98 0.2 SW 7 13 4 7 - - 0.0
23/05:30am 10.8 9.8 10.3 97 0.3 SW 6 9 3 5 - - 0.0
23/05:00am 10.8 9.5 10.0 95 0.4 SW 7 9 4 5 - - 0.0
23/04:30am 11.1 9.5 10.3 95 0.4 SW 9 17 5 9 - - 0.0
23/04:00am 11.2 9.7 10.4 95 0.4 SSW 9 13 5 7 - - 0.0
23/03:30am 11.6 10.2 10.8 95 0.4 SW 9 15 5 8 - - 0.0
23/03:00am 11.7 10.4 11.1 96 0.3 SW 9 13 5 7 - - 0.0
23/02:30am 11.8 10.5 11.2 96 0.3 SW 9 13 5 7 - - 0.0
23/02:00am 11.6 10.7 10.8 95 0.4 SW 6 9 3 5 - - 0.0
23/01:30am 11.7 11.2 10.8 94 0.5 SSW 4 6 2 3 - - 0.0
23/01:00am 11.9 11.0 10.6 92 0.7 SSW 6 7 3 4 - - 0.0
23/12:30am 12.1 11.2 10.5 90 0.8 S 6 9 3 5 - - 0.0
23/12:00am 12.5 11.4 10.6 88 1.0 SSW 7 11 4 6 - - 0.0
 
Date/Time
EDT
Temp
°C
App
Temp
°C
Dew
Point
°C
Rel
Hum
%
Delta-T
°C
Wind Press
QNH
hPa
Press
MSL
hPa
Rain since
9am
mm
Dir  Spd
km/h
Gust
km/h
Spd
kts
Gust
kts
22/11:30pm 12.8 11.3 10.7 87 1.1 SSE 9 15 5 8 - - 0.0
22/11:00pm 12.7 11.2 10.4 86 1.2 S 9 13 5 7 - - 0.0
22/10:30pm 12.9 11.4 10.6 86 1.2 S 9 13 5 7 - - 0.0
22/10:00pm 12.8 11.6 10.3 85 1.3 S 7 11 4 6 - - 0.0
22/09:30pm 12.9 11.7 10.3 84 1.4 S 7 11 4 6 - - 0.0
22/09:00pm 13.7 11.7 10.3 80 1.8 S 11 20 6 11 - - 0.0
22/08:30pm 14.3 12.0 10.3 77 2.1 SSW 13 24 7 13 - - 0.0
22/08:00pm 15.0 11.8 10.0 72 2.6 SSW 17 24 9 13 - - 0.0
22/07:30pm 15.6 13.3 10.4 71 2.8 SSW 13 24 7 13 - - 0.0

Other formats

Comma delimited format used in spreadsheet applications
http://www.bom.gov.au/fwo/IDV60801/IDV60801.95832.axf

JavaScript Object Notation format (JSON) in row-major order
http://www.bom.gov.au/fwo/IDV60801/IDV60801.95832.json

Data quality

Most of these data are generated automatically and are frequently updated. Quality checks on data are not normally performed. It is possible for incorrect values to appear. Refer to information at About Latest Weather Observations and please check the disclaimer before using these data.